Villa Clarita, Puerto Rico
Current Conditions -  °F | °C
As of 11:53 PM on Sunday 21 Dec 2014 (Local Time) from TJNR Reporting Station
Scattered Clouds Scattered Clouds  
Wind Chill: 78°   Ceiling: Unl
Heat Index: 80°   Visibility: 10mi
Dew Point: 67°   Wind: 7mph
Humidity: 68%   Direction: 60°ENE
Pressure: 30.09"   Gusts: NA
Location:  18.3304°N, 65.6573°W
Report Text: TJNR 220353Z AUTO 06006KT 10SM SCT036 26/19 A3009 RMK AO2 SLP190 T02560194 402890250 $
Loading
Personal Weather Stations






























Interactive Weather Map New forecast layout! Learn more

10-Day Weather Forecast

Advertisements
Track Severe Weather on mobile